createdAt,value
2023-06-09T00:01:17.892Z,99246.70
2023-06-09T00:05:15.896Z,99241.98
2023-06-09T00:09:13.867Z,99243.88
2023-06-09T00:13:11.865Z,99240.63
2023-06-09T00:17:11.102Z,99240.90
2023-06-09T00:21:08.965Z,99240.46
2023-06-09T00:25:07.067Z,99237.41
2023-06-09T00:29:04.898Z,99233.52
2023-06-09T00:33:02.911Z,99227.16
2023-06-09T00:37:00.847Z,99226.81
2023-06-09T00:40:58.855Z,99223.64
2023-06-09T00:44:59.388Z,99227.26
2023-06-09T00:48:56.822Z,99225.98
2023-06-09T00:52:55.919Z,99225.09
2023-06-09T00:56:54.842Z,99218.44
2023-06-09T01:00:52.900Z,99212.77
2023-06-09T01:04:56.844Z,99206.14
2023-06-09T01:09:13.838Z,99200.84
2023-06-09T01:13:18.828Z,99193.59
2023-06-09T01:17:26.895Z,99190.10
2023-06-09T01:21:42.918Z,99196.77
2023-06-09T01:25:47.799Z,99203.23
2023-06-09T01:29:48.751Z,99198.36
2023-06-09T01:33:46.821Z,99191.35
2023-06-09T01:37:44.778Z,99187.98
2023-06-09T01:41:42.801Z,99184.16
2023-06-09T01:45:40.802Z,99187.27
2023-06-09T01:49:52.732Z,99186.18
2023-06-09T01:53:53.755Z,99181.07
2023-06-09T01:58:08.839Z,99183.08
2023-06-09T02:02:07.811Z,99188.47
2023-06-09T02:06:09.760Z,99191.73
2023-06-09T02:10:07.754Z,99193.23
2023-06-09T02:14:09.745Z,99191.54
2023-06-09T02:18:09.816Z,99189.96
2023-06-09T02:22:07.755Z,99193.44
2023-06-09T02:26:15.743Z,99194.91
2023-06-09T02:30:13.724Z,99195.34
2023-06-09T02:34:11.694Z,99194.90
2023-06-09T02:38:09.740Z,99204.30
2023-06-09T02:42:07.701Z,99202.05
2023-06-09T02:46:05.743Z,99203.30
2023-06-09T02:50:03.695Z,99204.92
2023-06-09T02:54:01.708Z,99197.45
2023-06-09T02:57:59.713Z,99197.36
2023-06-09T03:01:57.761Z,99198.79
2023-06-09T03:05:55.655Z,99199.55
2023-06-09T03:09:53.712Z,99197.80
2023-06-09T03:13:51.676Z,99199.69
2023-06-09T03:17:50.781Z,99194.33
2023-06-09T03:21:51.677Z,99192.52
2023-06-09T03:25:49.684Z,99199.49
2023-06-09T03:29:50.725Z,99195.52
2023-06-09T03:33:48.672Z,99198.66
2023-06-09T03:37:46.654Z,99201.15
2023-06-09T03:41:44.672Z,99204.89
2023-06-09T03:45:42.637Z,99209.48
2023-06-09T03:49:40.635Z,99210.52
2023-06-09T03:53:38.650Z,99211.13
2023-06-09T03:57:36.637Z,99214.34
2023-06-09T04:01:35.720Z,99217.83
2023-06-09T04:05:34.781Z,99213.73
2023-06-09T04:09:32.640Z,99218.77
2023-06-09T04:13:30.671Z,99223.73
2023-06-09T04:17:29.697Z,99221.13
2023-06-09T04:21:28.652Z,99220.58
2023-06-09T04:25:27.805Z,99219.58
2023-06-09T04:29:30.721Z,99214.52
2023-06-09T04:33:28.619Z,99213.84
2023-06-09T04:37:26.602Z,99215.44
2023-06-09T04:41:25.685Z,99218.98
2023-06-09T04:45:24.617Z,99217.58
2023-06-09T04:49:25.629Z,99222.38
2023-06-09T04:53:24.394Z,99220.96
2023-06-09T04:57:25.565Z,99220.23
2023-06-09T05:01:23.691Z,99218.20
2023-06-09T05:05:21.655Z,99219.83
2023-06-09T05:09:21.650Z,99221.19
2023-06-09T05:13:19.561Z,99221.55
2023-06-09T05:17:17.611Z,99225.89
2023-06-09T05:21:15.566Z,99224.88
2023-06-09T05:25:17.660Z,99218.52
2023-06-09T05:29:16.550Z,99212.58
2023-06-09T05:33:14.576Z,99213.29
2023-06-09T05:37:12.578Z,99213.95
2023-06-09T05:41:10.592Z,99212.11
2023-06-09T05:45:08.520Z,99214.95
2023-06-09T05:49:06.587Z,99216.20
2023-06-09T05:53:04.521Z,99219.13
2023-06-09T05:57:02.618Z,99220.97
2023-06-09T06:00:40.352Z,99219.84
2023-06-09T06:04:04.307Z,99221.34
2023-06-09T06:07:28.505Z,99221.59
2023-06-09T06:10:53.855Z,99216.30
2023-06-09T06:14:17.793Z,99219.67
2023-06-09T06:17:42.009Z,99223.59
2023-06-09T06:21:06.594Z,99226.36
2023-06-09T06:24:30.837Z,99225.45
2023-06-09T06:27:54.871Z,99219.51
2023-06-09T06:31:19.179Z,99220.71
2023-06-09T06:34:43.120Z,99224.41
2023-06-09T06:38:07.316Z,99226.92
2023-06-09T06:41:31.132Z,99235.01
2023-06-09T06:44:57.181Z,99233.38
2023-06-09T06:48:22.482Z,99231.54
2023-06-09T06:51:46.647Z,99232.38
2023-06-09T06:55:10.670Z,99233.64
2023-06-09T06:58:34.822Z,99234.89
2023-06-09T07:01:58.783Z,99237.11
2023-06-09T07:05:23.716Z,99234.21
2023-06-09T07:08:47.723Z,99236.40
2023-06-09T07:12:11.845Z,99240.23
2023-06-09T07:15:37.660Z,99237.20
2023-06-09T07:19:01.698Z,99241.79
2023-06-09T07:22:25.714Z,99243.02
2023-06-09T07:25:49.637Z,99243.54
2023-06-09T07:29:13.820Z,99244.41
2023-06-09T07:32:38.335Z,99242.02
2023-06-09T07:36:02.257Z,99244.89
2023-06-09T07:39:26.368Z,99242.91
2023-06-09T07:42:50.962Z,99246.24
2023-06-09T07:46:15.487Z,99250.16
2023-06-09T07:49:39.500Z,99247.19
2023-06-09T07:53:04.542Z,99252.48
2023-06-09T07:56:28.387Z,99249.34
2023-06-09T07:59:52.367Z,99250.85
2023-06-09T08:03:17.304Z,99254.74
2023-06-09T08:06:41.762Z,99252.50
2023-06-09T08:10:07.103Z,99251.27
2023-06-09T08:13:31.812Z,99249.28
2023-06-09T08:16:56.126Z,99249.27
2023-06-09T08:20:20.262Z,99247.76
2023-06-09T08:23:45.616Z,99247.79
2023-06-09T08:27:09.934Z,99250.85
2023-06-09T08:30:34.353Z,99252.20
2023-06-09T08:33:58.486Z,99252.02
2023-06-09T08:37:22.420Z,99258.11
2023-06-09T08:40:49.049Z,99256.84
2023-06-09T08:44:14.529Z,99257.83
2023-06-09T08:47:39.627Z,99261.33
2023-06-09T08:51:04.621Z,99263.21
2023-06-09T08:54:29.275Z,99264.55
2023-06-09T08:57:53.909Z,99261.67
2023-06-09T09:01:22.345Z,99262.09
2023-06-09T09:04:48.314Z,99258.12
2023-06-09T09:08:13.675Z,99259.33
2023-06-09T09:11:37.893Z,99263.56
2023-06-09T09:15:08.102Z,99260.15
2023-06-09T09:18:46.829Z,99262.77
2023-06-09T09:22:11.580Z,99260.83
2023-06-09T09:25:35.806Z,99262.15
2023-06-09T09:29:18.138Z,99262.55
2023-06-09T09:32:42.074Z,99259.48
2023-06-09T09:36:11.229Z,99257.90
2023-06-09T09:39:35.878Z,99259.55
2023-06-09T09:43:03.441Z,99263.11
2023-06-09T09:46:28.069Z,99263.12
2023-06-09T09:49:57.965Z,99264.00
2023-06-09T09:53:26.241Z,99261.88
2023-06-09T09:56:50.748Z,99259.67
2023-06-09T10:00:15.339Z,99261.52
2023-06-09T10:03:42.904Z,99264.80
2023-06-09T10:07:07.440Z,99258.17
2023-06-09T10:10:32.549Z,99256.55
2023-06-09T10:13:57.308Z,99255.09
2023-06-09T10:17:23.046Z,99255.43
2023-06-09T10:20:47.059Z,99250.18
2023-06-09T10:24:14.194Z,99248.42
2023-06-09T10:27:38.077Z,99247.63
2023-06-09T10:31:03.752Z,99244.59
2023-06-09T10:34:29.080Z,99240.16
2023-06-09T10:37:53.789Z,99240.15
2023-06-09T10:41:24.263Z,99232.48
2023-06-09T10:45:02.886Z,99231.39
2023-06-09T10:48:50.975Z,99233.30
2023-06-09T10:52:39.886Z,99222.98
2023-06-09T10:56:35.570Z,99217.28
2023-06-09T10:59:59.532Z,99218.42
2023-06-09T11:03:30.881Z,99208.61
2023-06-09T11:07:13.253Z,99208.84
2023-06-09T11:10:39.037Z,99202.29
2023-06-09T11:14:02.979Z,99196.94
2023-06-09T11:17:37.748Z,99191.03
2023-06-09T11:21:16.366Z,99191.64
2023-06-09T11:24:54.079Z,99191.06
2023-06-09T11:28:19.410Z,99183.27
2023-06-09T11:31:49.533Z,99185.61
2023-06-09T11:35:32.025Z,99182.97
2023-06-09T11:39:02.992Z,99180.15
2023-06-09T11:42:27.004Z,99175.70
2023-06-09T11:45:51.436Z,99173.45
2023-06-09T11:49:15.341Z,99169.27
2023-06-09T11:52:39.891Z,99163.94
2023-06-09T11:56:05.123Z,99152.03
2023-06-09T11:59:41.384Z,99151.39
2023-06-09T12:03:11.265Z,99153.58
2023-06-09T12:06:37.851Z,99148.59
2023-06-09T12:10:01.926Z,99149.48
2023-06-09T12:13:26.084Z,99141.08
2023-06-09T12:16:51.497Z,99133.98
2023-06-09T12:20:28.197Z,99136.36
2023-06-09T12:23:57.326Z,99138.83
2023-06-09T12:27:22.822Z,99128.83
2023-06-09T12:30:49.367Z,99122.75
2023-06-09T12:34:30.438Z,99115.13
2023-06-09T12:37:54.541Z,99111.59
2023-06-09T12:41:19.722Z,99113.89
2023-06-09T12:44:49.056Z,99120.64
2023-06-09T12:48:13.220Z,99118.73
2023-06-09T12:51:42.561Z,99107.03
2023-06-09T12:55:11.347Z,99107.31
2023-06-09T12:58:35.452Z,99098.59
2023-06-09T13:01:59.554Z,99098.45
2023-06-09T13:05:24.789Z,99095.94
2023-06-09T13:08:48.837Z,99090.81
2023-06-09T13:12:12.916Z,99088.42
2023-06-09T13:15:37.126Z,99087.65
2023-06-09T13:19:01.518Z,99082.47
2023-06-09T13:22:25.832Z,99082.13
2023-06-09T13:25:50.064Z,99079.10
2023-06-09T13:29:14.442Z,99081.09
2023-06-09T13:32:59.262Z,99077.01
2023-06-09T13:36:57.114Z,99069.24
2023-06-09T13:40:55.153Z,99067.41
2023-06-09T13:44:53.187Z,99069.55
2023-06-09T13:48:51.293Z,99071.54
2023-06-09T13:52:50.120Z,99069.29
2023-06-09T13:56:49.119Z,99066.10
2023-06-09T14:00:47.113Z,99064.85
2023-06-09T14:04:45.262Z,99058.10
2023-06-09T14:08:43.138Z,99055.66
2023-06-09T14:12:41.198Z,99054.86
2023-06-09T14:16:39.310Z,99056.33
2023-06-09T14:20:37.164Z,99057.56
2023-06-09T14:24:35.084Z,99058.33
2023-06-09T14:28:33.111Z,99063.53
2023-06-09T14:33:04.216Z,99070.11
2023-06-09T14:37:02.106Z,99057.81
2023-06-09T14:41:00.052Z,99066.95
2023-06-09T14:44:58.116Z,99072.04
2023-06-09T14:48:56.111Z,99063.60
2023-06-09T14:52:54.121Z,99061.80
2023-06-09T14:56:52.063Z,99059.92
2023-06-09T15:00:51.092Z,99065.66
2023-06-09T15:04:49.177Z,99068.16
2023-06-09T15:08:47.193Z,99067.97
2023-06-09T15:12:45.076Z,99076.73
2023-06-09T15:16:43.121Z,99077.86
2023-06-09T15:20:42.249Z,99078.14
2023-06-09T15:24:40.090Z,99074.15
2023-06-09T15:28:38.078Z,99075.96
2023-06-09T15:32:36.083Z,99076.36
2023-06-09T15:36:34.109Z,99073.54
2023-06-09T15:40:32.049Z,99075.37
2023-06-09T15:44:30.058Z,99082.33
2023-06-09T15:48:29.024Z,99080.83
2023-06-09T15:52:27.105Z,99086.83
2023-06-09T15:56:24.997Z,99087.61
2023-06-09T16:00:22.996Z,99081.58
2023-06-09T16:04:21.137Z,99079.48
2023-06-09T16:08:20.252Z,99076.98
2023-06-09T16:12:18.062Z,99076.88
2023-06-09T16:16:16.013Z,99081.91
2023-06-09T16:20:14.138Z,99076.43
2023-06-09T16:24:12.024Z,99077.09
2023-06-09T16:28:10.135Z,99081.48
2023-06-09T16:32:07.993Z,99088.00
2023-06-09T16:36:06.160Z,99088.52
2023-06-09T16:40:04.104Z,99099.86
2023-06-09T16:44:20.055Z,99098.63
2023-06-09T16:48:20.954Z,99098.37
2023-06-09T16:52:19.015Z,99095.75
2023-06-09T16:56:17.290Z,99097.59
2023-06-09T17:00:15.024Z,99097.86
2023-06-09T17:04:13.027Z,99095.40
2023-06-09T17:08:43.348Z,99101.99
2023-06-09T17:12:41.923Z,99100.17
2023-06-09T17:16:40.073Z,99106.05
2023-06-09T17:20:37.939Z,99104.69
2023-06-09T17:24:35.941Z,99105.02
2023-06-09T17:28:33.946Z,99106.41
2023-06-09T17:32:31.989Z,99111.50
2023-06-09T17:36:30.018Z,99118.17
2023-06-09T17:40:28.994Z,99130.45
2023-06-09T17:44:26.921Z,99128.52
2023-06-09T17:48:25.027Z,99138.13
2023-06-09T17:52:25.993Z,99144.57
2023-06-09T17:56:23.946Z,99154.41
2023-06-09T18:00:21.915Z,99157.22
2023-06-09T18:04:20.000Z,99154.16
2023-06-09T18:08:17.904Z,99156.71
2023-06-09T18:12:15.974Z,99155.98
2023-06-09T18:16:16.950Z,99157.52
2023-06-09T18:20:32.913Z,99163.33
2023-06-09T18:24:30.919Z,99167.47
2023-06-09T18:28:28.935Z,99166.42
2023-06-09T18:32:26.981Z,99165.23
2023-06-09T18:36:24.977Z,99166.19
2023-06-09T18:40:22.866Z,99174.50
2023-06-09T18:44:28.930Z,99179.73
2023-06-09T18:48:26.920Z,99184.89
2023-06-09T18:52:24.875Z,99187.96
2023-06-09T18:56:23.102Z,99187.38
2023-06-09T19:00:23.008Z,99191.43
2023-06-09T19:04:20.837Z,99187.66
2023-06-09T19:08:18.952Z,99179.98
2023-06-09T19:16:36.839Z,99177.71
2023-06-09T19:20:36.883Z,99187.37
2023-06-09T19:24:34.846Z,99187.42
2023-06-09T19:28:32.813Z,99186.60
2023-06-09T19:32:31.914Z,99195.43
2023-06-09T19:36:29.813Z,99196.52
2023-06-09T19:40:28.873Z,99194.99
2023-06-09T19:44:26.852Z,99196.20
2023-06-09T19:48:24.920Z,99192.27
2023-06-09T19:52:23.799Z,99193.80
2023-06-09T19:56:21.792Z,99188.08
2023-06-09T20:00:21.817Z,99190.63
2023-06-09T20:04:19.899Z,99188.77
2023-06-09T20:08:17.787Z,99184.58
2023-06-09T20:12:15.880Z,99175.05
2023-06-09T20:16:13.811Z,99174.16
2023-06-09T20:20:11.869Z,99173.63
2023-06-09T20:24:10.844Z,99168.10
2023-06-09T20:28:08.793Z,99167.17
2023-06-09T20:32:06.807Z,99166.96
2023-06-09T20:36:04.836Z,99164.83
2023-06-09T20:40:02.746Z,99165.47
2023-06-09T20:44:00.775Z,99165.32
2023-06-09T20:47:58.744Z,99170.75
2023-06-09T20:51:57.815Z,99168.14
2023-06-09T20:55:56.714Z,99173.33
2023-06-09T20:59:54.757Z,99181.18
2023-06-09T21:03:53.897Z,99185.20
2023-06-09T21:07:51.741Z,99190.11
2023-06-09T21:11:49.773Z,99193.33
2023-06-09T21:15:47.804Z,99196.61
2023-06-09T21:19:45.938Z,99197.43
2023-06-09T21:23:43.818Z,99198.45
2023-06-09T21:27:41.743Z,99200.05
2023-06-09T21:31:39.767Z,99200.76
2023-06-09T21:35:37.755Z,99202.34
2023-06-09T21:39:35.725Z,99197.44
2023-06-09T21:43:33.734Z,99194.44
2023-06-09T21:47:34.719Z,99186.97
2023-06-09T21:51:32.664Z,99178.52
2023-06-09T21:55:30.935Z,99176.67
2023-06-09T21:59:28.671Z,99170.56
2023-06-09T22:03:26.702Z,99171.87
2023-06-09T22:07:24.714Z,99165.98
2023-06-09T22:11:22.675Z,99166.95
2023-06-09T22:15:26.039Z,99173.52
2023-06-09T22:19:27.696Z,99172.91
2023-06-09T22:23:25.674Z,99174.88
2023-06-09T22:27:24.718Z,99171.83
2023-06-09T22:31:22.684Z,99172.98
2023-06-09T22:35:21.654Z,99168.21
2023-06-09T22:39:20.647Z,99168.21
2023-06-09T22:43:18.662Z,99169.70
2023-06-09T22:47:16.650Z,99170.80
2023-06-09T22:51:14.738Z,99172.48
2023-06-09T22:55:12.779Z,99167.14
2023-06-09T22:59:10.676Z,99165.45
2023-06-09T23:03:08.721Z,99162.19
2023-06-09T23:07:06.682Z,99158.15
2023-06-09T23:15:23.633Z,99155.09
2023-06-09T23:19:23.626Z,99155.96
2023-06-09T23:23:22.644Z,99151.79
2023-06-09T23:27:20.637Z,99152.16
2023-06-09T23:31:18.628Z,99157.31
2023-06-09T23:35:16.584Z,99165.77
2023-06-09T23:39:14.671Z,99175.31
2023-06-09T23:43:12.588Z,99167.69
2023-06-09T23:47:10.589Z,99165.39
2023-06-09T23:51:08.581Z,99163.05
2023-06-09T23:55:06.729Z,99168.02
2023-06-09T23:59:04.587Z,99175.48
